createdAt,value
2017-07-08T00:00:58.768Z,0
2017-07-08T00:02:11.118Z,0
2017-07-08T00:03:23.468Z,0
2017-07-08T00:04:35.733Z,0
2017-07-08T00:05:48.056Z,0
2017-07-08T00:07:00.395Z,0
2017-07-08T00:08:12.745Z,0
2017-07-08T00:09:25.301Z,0
2017-07-08T00:10:37.666Z,0
2017-07-08T00:11:49.655Z,0
2017-07-08T00:13:02.475Z,0
2017-07-08T00:14:14.746Z,0
2017-07-08T00:15:27.377Z,0
2017-07-08T00:16:39.613Z,0
2017-07-08T00:17:52.163Z,0
2017-07-08T00:19:04.766Z,0
2017-07-08T00:20:17.053Z,0
2017-07-08T00:21:29.063Z,0
2017-07-08T00:22:41.092Z,0
2017-07-08T00:23:53.631Z,0
2017-07-08T00:25:06.194Z,0
2017-07-08T00:26:17.851Z,0
2017-07-08T00:27:29.923Z,0
2017-07-08T00:28:42.565Z,0
2017-07-08T00:29:55.149Z,0
2017-07-08T00:31:07.464Z,0
2017-07-08T00:32:19.992Z,0
2017-07-08T00:33:32.365Z,0
2017-07-08T00:34:45.013Z,0
2017-07-08T00:35:57.276Z,0
2017-07-08T00:37:09.581Z,0
2017-07-08T00:38:22.243Z,0
2017-07-08T00:39:34.556Z,0
2017-07-08T00:40:46.823Z,0
2017-07-08T00:41:59.078Z,0
2017-07-08T00:43:11.045Z,0
2017-07-08T00:44:23.643Z,0
2017-07-08T00:45:36.283Z,0
2017-07-08T00:46:48.567Z,0
2017-07-08T00:48:01.181Z,0
2017-07-08T00:49:13.401Z,0
2017-07-08T00:50:26.006Z,0
2017-07-08T00:51:38.312Z,0
2017-07-08T00:52:50.565Z,0
2017-07-08T00:54:02.500Z,0
2017-07-08T00:55:14.761Z,0
2017-07-08T00:56:27.634Z,0
2017-07-08T00:57:40.226Z,0
2017-07-08T00:58:52.515Z,0
2017-07-08T01:00:04.741Z,0
2017-07-08T01:01:17.337Z,0
2017-07-08T01:02:29.952Z,0
2017-07-08T01:03:42.567Z,0
2017-07-08T01:04:55.173Z,0
2017-07-08T01:06:07.451Z,0
2017-07-08T01:07:19.997Z,0
2017-07-08T01:08:32.595Z,0
2017-07-08T01:09:45.220Z,0
2017-07-08T01:10:57.851Z,0
2017-07-08T01:12:09.831Z,0
2017-07-08T01:13:22.109Z,0
2017-07-08T01:14:34.703Z,0
2017-07-08T01:15:47.318Z,0
2017-07-08T01:16:59.941Z,0
2017-07-08T01:18:12.561Z,0
2017-07-08T01:19:24.580Z,0
2017-07-08T01:20:36.903Z,0
2017-07-08T01:21:49.180Z,0
2017-07-08T01:23:00.833Z,0
2017-07-08T01:24:11.895Z,0
2017-07-08T01:25:24.230Z,0
2017-07-08T01:26:36.500Z,0
2017-07-08T01:27:48.743Z,0
2017-07-08T01:29:01.325Z,0
2017-07-08T01:30:13.693Z,0
2017-07-08T01:31:26.333Z,0
2017-07-08T01:32:38.671Z,0
2017-07-08T01:33:51.272Z,0
2017-07-08T01:35:03.910Z,0
2017-07-08T01:36:16.505Z,0
2017-07-08T01:37:29.156Z,0
2017-07-08T01:38:41.411Z,0
2017-07-08T01:39:54.044Z,0
2017-07-08T01:41:06.619Z,0
2017-07-08T01:42:19.222Z,0
2017-07-08T01:43:31.863Z,0
2017-07-08T01:44:44.460Z,0
2017-07-08T01:45:57.097Z,0
2017-07-08T01:47:09.693Z,0
2017-07-08T01:48:22.012Z,0
2017-07-08T01:49:34.662Z,0
2017-07-08T01:50:46.894Z,0
2017-07-08T01:51:59.195Z,0
2017-07-08T01:53:11.836Z,0
2017-07-08T01:54:24.459Z,0
2017-07-08T01:55:37.120Z,0
2017-07-08T01:56:49.726Z,0
2017-07-08T01:58:02.445Z,0
2017-07-08T01:59:15.044Z,0
2017-07-08T02:00:27.305Z,0
2017-07-08T02:01:39.945Z,0
2017-07-08T02:02:51.931Z,0
2017-07-08T02:04:04.561Z,0
2017-07-08T02:05:17.145Z,0
2017-07-08T02:06:29.823Z,0
2017-07-08T02:07:41.879Z,4
2017-07-08T02:08:53.264Z,4
2017-07-08T02:10:04.899Z,4
2017-07-08T02:11:16.889Z,4
2017-07-08T02:12:29.738Z,0
2017-07-08T02:13:42.268Z,4
2017-07-08T02:14:54.837Z,4
2017-07-08T02:16:07.129Z,4
2017-07-08T02:17:19.430Z,4
2017-07-08T02:18:32.000Z,8
2017-07-08T02:19:44.245Z,8
2017-07-08T02:20:56.838Z,8
2017-07-08T02:22:09.512Z,12
2017-07-08T02:23:21.504Z,12
2017-07-08T02:24:33.109Z,12
2017-07-08T02:25:45.382Z,16
2017-07-08T02:26:57.971Z,16
2017-07-08T02:28:10.229Z,20
2017-07-08T02:29:22.874Z,24
2017-07-08T02:30:35.210Z,24
2017-07-08T02:31:47.150Z,28
2017-07-08T02:32:59.165Z,32
2017-07-08T02:34:11.736Z,36
2017-07-08T02:35:24.373Z,40
2017-07-08T02:36:36.639Z,44
2017-07-08T02:37:48.942Z,52
2017-07-08T02:39:01.635Z,56
2017-07-08T02:40:13.968Z,64
2017-07-08T02:41:26.256Z,72
2017-07-08T02:42:38.825Z,80
2017-07-08T02:43:51.440Z,88
2017-07-08T02:45:04.015Z,100
2017-07-08T02:46:16.272Z,112
2017-07-08T02:47:28.604Z,128
2017-07-08T02:48:41.187Z,136
2017-07-08T02:49:53.466Z,152
2017-07-08T02:51:05.769Z,164
2017-07-08T02:52:18.333Z,180
2017-07-08T02:53:29.978Z,200
2017-07-08T02:54:42.575Z,216
2017-07-08T02:55:55.175Z,232
2017-07-08T02:57:07.777Z,256
2017-07-08T02:58:20.392Z,284
2017-07-08T02:59:32.657Z,308
2017-07-08T03:00:45.243Z,332
2017-07-08T03:01:57.795Z,356
2017-07-08T03:03:10.096Z,380
2017-07-08T03:04:22.733Z,416
2017-07-08T03:05:35.353Z,460
2017-07-08T03:06:48.013Z,500
2017-07-08T03:08:00.558Z,528
2017-07-08T03:09:12.575Z,548
2017-07-08T03:10:25.228Z,556
2017-07-08T03:11:37.552Z,568
2017-07-08T03:12:49.843Z,572
2017-07-08T03:14:02.399Z,576
2017-07-08T03:15:14.723Z,564
2017-07-08T03:16:26.693Z,568
2017-07-08T03:17:39.280Z,584
2017-07-08T03:18:51.561Z,604
2017-07-08T03:20:03.913Z,608
2017-07-08T03:21:16.535Z,596
2017-07-08T03:22:28.526Z,592
2017-07-08T03:23:40.542Z,612
2017-07-08T03:24:52.859Z,620
2017-07-08T03:26:04.577Z,600
2017-07-08T03:27:17.197Z,560
2017-07-08T03:28:29.753Z,516
2017-07-08T03:29:41.711Z,476
2017-07-08T03:30:54.330Z,448
2017-07-08T03:32:06.688Z,424
2017-07-08T03:33:18.777Z,420
2017-07-08T03:34:31.126Z,472
2017-07-08T03:35:43.713Z,584
2017-07-08T03:36:56.297Z,700
2017-07-08T03:38:08.607Z,748
2017-07-08T03:39:21.132Z,784
2017-07-08T03:40:33.752Z,892
2017-07-08T03:41:46.050Z,1028
2017-07-08T03:42:58.021Z,1116
2017-07-08T03:44:10.317Z,1192
2017-07-08T03:45:22.949Z,1236
2017-07-08T03:46:35.274Z,1252
2017-07-08T03:47:47.260Z,1320
2017-07-08T03:48:59.851Z,1448
2017-07-08T03:50:12.452Z,1588
2017-07-08T03:51:25.059Z,1660
2017-07-08T03:52:37.652Z,1744
2017-07-08T03:53:49.354Z,1856
2017-07-08T03:55:01.988Z,2012
2017-07-08T03:56:14.292Z,2248
2017-07-08T03:57:26.865Z,2580
2017-07-08T03:58:39.437Z,2896
2017-07-08T03:59:51.736Z,3136
2017-07-08T04:01:04.261Z,3400
2017-07-08T04:02:16.920Z,3764
2017-07-08T04:03:29.474Z,4056
2017-07-08T04:04:41.766Z,4200
2017-07-08T04:05:54.074Z,4340
2017-07-08T04:07:06.311Z,4568
2017-07-08T04:08:18.036Z,4748
2017-07-08T04:09:30.646Z,4816
2017-07-08T04:10:43.252Z,4840
2017-07-08T04:11:55.848Z,4956
2017-07-08T04:13:08.127Z,4996
2017-07-08T04:14:20.705Z,4784
2017-07-08T04:15:33.310Z,4636
2017-07-08T04:16:45.981Z,4740
2017-07-08T04:17:58.246Z,4808
2017-07-08T04:19:10.541Z,4816
2017-07-08T04:20:22.550Z,4916
2017-07-08T04:21:35.088Z,5304
2017-07-08T04:22:47.603Z,5656
2017-07-08T04:23:59.863Z,5768
2017-07-08T04:25:12.534Z,5524
2017-07-08T04:26:24.586Z,5528
2017-07-08T04:27:36.814Z,5936
2017-07-08T04:28:49.070Z,6372
2017-07-08T04:30:01.720Z,6564
2017-07-08T04:31:14.364Z,6412
2017-07-08T04:32:27.014Z,6172
2017-07-08T04:33:39.959Z,6272
2017-07-08T04:34:52.303Z,6880
2017-07-08T04:36:04.935Z,7496
2017-07-08T04:37:17.181Z,7668
2017-07-08T04:38:29.738Z,7876
2017-07-08T04:39:42.005Z,7384
2017-07-08T04:40:54.316Z,6820
2017-07-08T04:42:06.265Z,7180
2017-07-08T04:43:18.211Z,7828
2017-07-08T04:44:30.833Z,8060
2017-07-08T04:45:42.799Z,7712
2017-07-08T04:46:55.152Z,7488
2017-07-08T04:48:07.723Z,7668
2017-07-08T04:49:20.014Z,7580
2017-07-08T04:50:32.632Z,7088
2017-07-08T04:51:44.921Z,6708
2017-07-08T04:52:57.458Z,6540
2017-07-08T04:54:09.747Z,6448
2017-07-08T04:55:22.341Z,6412
2017-07-08T04:56:34.648Z,6628
2017-07-08T04:57:47.005Z,7360
2017-07-08T04:58:59.332Z,8044
2017-07-08T05:00:11.291Z,8360
2017-07-08T05:01:23.901Z,8768
2017-07-08T05:02:36.533Z,9616
2017-07-08T05:03:49.067Z,10224
2017-07-08T05:05:01.040Z,10344
2017-07-08T05:06:13.654Z,10072
2017-07-08T05:07:24.974Z,10156
2017-07-08T05:08:36.660Z,10600
2017-07-08T05:09:48.304Z,11364
2017-07-08T05:11:00.587Z,11728
2017-07-08T05:12:12.845Z,12560
2017-07-08T05:13:24.564Z,13580
2017-07-08T05:14:36.830Z,14208
2017-07-08T05:15:49.102Z,14900
2017-07-08T05:17:01.691Z,15016
2017-07-08T05:18:14.278Z,13832
2017-07-08T05:19:26.918Z,12144
2017-07-08T05:20:38.547Z,11016
2017-07-08T05:21:51.142Z,10632
2017-07-08T05:23:03.070Z,10384
2017-07-08T05:24:15.143Z,10496
2017-07-08T05:25:27.742Z,12416
2017-07-08T05:26:40.394Z,13496
2017-07-08T05:27:52.630Z,13944
2017-07-08T05:29:04.875Z,14884
2017-07-08T05:30:16.813Z,13120
2017-07-08T05:31:29.400Z,13668
2017-07-08T05:32:41.744Z,16444
2017-07-08T05:33:53.395Z,18848
2017-07-08T05:35:06.014Z,21152
2017-07-08T05:36:18.665Z,20352
2017-07-08T05:37:30.647Z,21856
2017-07-08T05:38:42.924Z,20288
2017-07-08T05:39:55.218Z,19808
2017-07-08T05:41:07.831Z,19680
2017-07-08T05:42:20.180Z,20448
2017-07-08T05:43:32.701Z,21536
2017-07-08T05:44:45.024Z,22464
2017-07-08T05:45:57.322Z,22016
2017-07-08T05:47:09.588Z,17920
2017-07-08T05:48:21.594Z,15352
2017-07-08T05:49:34.442Z,14072
2017-07-08T05:50:46.743Z,13168
2017-07-08T05:51:58.754Z,12868
2017-07-08T05:53:10.706Z,13184
2017-07-08T05:54:23.043Z,13504
2017-07-08T05:55:35.387Z,13668
2017-07-08T05:56:47.983Z,13604
2017-07-08T05:58:00.281Z,13544
2017-07-08T05:59:12.623Z,13268
2017-07-08T06:00:24.887Z,12976
2017-07-08T06:01:37.222Z,12588
2017-07-08T06:02:49.846Z,12468
2017-07-08T06:04:01.793Z,13104
2017-07-08T06:05:13.161Z,14088
2017-07-08T06:06:25.153Z,14384
2017-07-08T06:07:37.454Z,13980
2017-07-08T06:08:49.690Z,13428
2017-07-08T06:10:02.286Z,12632
2017-07-08T06:11:14.893Z,11716
2017-07-08T06:12:27.483Z,11148
2017-07-08T06:13:39.156Z,10792
2017-07-08T06:14:51.153Z,10340
2017-07-08T06:16:03.433Z,9924
2017-07-08T06:17:15.435Z,9852
2017-07-08T06:18:27.811Z,10160
2017-07-08T06:19:40.098Z,10308
2017-07-08T06:20:52.435Z,10196
2017-07-08T06:22:04.396Z,10088
2017-07-08T06:23:15.729Z,10144
2017-07-08T06:24:27.055Z,10416
2017-07-08T06:25:39.670Z,10776
2017-07-08T06:26:52.310Z,10920
2017-07-08T06:28:04.603Z,11268
2017-07-08T06:29:17.204Z,11620
2017-07-08T06:30:29.566Z,12080
2017-07-08T06:31:41.899Z,12588
2017-07-08T06:32:54.544Z,12944
2017-07-08T06:34:05.884Z,13500
2017-07-08T06:35:17.863Z,13704
2017-07-08T06:36:30.116Z,13756
2017-07-08T06:37:42.748Z,13828
2017-07-08T06:38:55.022Z,13576
2017-07-08T06:40:06.963Z,13148
2017-07-08T06:41:19.566Z,13020
2017-07-08T06:42:32.169Z,13236
2017-07-08T06:43:44.440Z,13032
2017-07-08T06:44:56.723Z,12160
2017-07-08T06:46:08.619Z,11084
2017-07-08T06:47:20.584Z,9964
2017-07-08T06:48:33.173Z,9256
2017-07-08T06:49:45.518Z,9496
2017-07-08T06:50:58.118Z,10124
2017-07-08T06:52:10.435Z,10228
2017-07-08T06:53:23.021Z,10236
2017-07-08T06:54:34.963Z,10312
2017-07-08T06:55:47.534Z,10764
2017-07-08T06:57:00.208Z,11512
2017-07-08T06:58:12.539Z,11940
2017-07-08T06:59:24.879Z,12032
2017-07-08T07:00:37.506Z,12040
2017-07-08T07:01:49.822Z,11936
2017-07-08T07:03:02.407Z,11668
2017-07-08T07:04:14.687Z,11620
2017-07-08T07:05:27.391Z,11764
2017-07-08T07:06:40.010Z,11784
2017-07-08T07:07:52.693Z,11632
2017-07-08T07:09:04.953Z,11488
2017-07-08T07:10:17.232Z,11704
2017-07-08T07:11:29.507Z,12096
2017-07-08T07:12:42.154Z,12328
2017-07-08T07:13:54.394Z,12484
2017-07-08T07:15:06.023Z,12672
2017-07-08T07:16:18.364Z,13060
2017-07-08T07:17:30.698Z,13844
2017-07-08T07:18:42.956Z,14592
2017-07-08T07:19:55.601Z,14804
2017-07-08T07:21:07.917Z,14252
2017-07-08T07:22:20.251Z,13456
2017-07-08T07:23:31.588Z,12916
2017-07-08T07:24:43.839Z,12768
2017-07-08T07:25:56.137Z,12708
2017-07-08T07:27:08.084Z,12724
2017-07-08T07:28:20.719Z,12552
2017-07-08T07:29:33.291Z,12436
2017-07-08T07:30:44.969Z,12472
2017-07-08T07:31:57.595Z,12720
2017-07-08T07:33:09.551Z,13012
2017-07-08T07:34:21.548Z,13004
2017-07-08T07:35:33.823Z,13004
2017-07-08T07:36:46.121Z,13468
2017-07-08T07:37:58.735Z,14612
2017-07-08T07:39:10.680Z,16020
2017-07-08T07:40:22.080Z,17116
2017-07-08T07:41:34.350Z,17280
2017-07-08T07:42:46.324Z,16712
2017-07-08T07:43:58.339Z,16132
2017-07-08T07:45:10.305Z,15576
2017-07-08T07:46:22.692Z,15152
2017-07-08T07:47:34.991Z,15296
2017-07-08T07:48:47.261Z,15856
2017-07-08T07:49:59.882Z,16348
2017-07-08T07:51:12.236Z,16528
2017-07-08T07:52:24.223Z,16544
2017-07-08T07:53:36.156Z,16620
2017-07-08T07:54:48.437Z,17084
2017-07-08T07:56:01.052Z,18432
2017-07-08T07:57:13.651Z,19840
2017-07-08T07:58:25.938Z,21216
2017-07-08T07:59:38.245Z,21728
2017-07-08T08:00:49.863Z,21408
2017-07-08T08:02:02.159Z,20384
2017-07-08T08:03:14.148Z,19424
2017-07-08T08:04:26.740Z,18976
2017-07-08T08:05:39.061Z,19040
2017-07-08T08:06:51.047Z,19584
2017-07-08T08:08:02.382Z,20320
2017-07-08T08:09:14.611Z,20928
2017-07-08T08:10:27.252Z,21568
2017-07-08T08:11:39.482Z,22080
2017-07-08T08:12:51.776Z,22400
2017-07-08T08:14:03.756Z,21952
2017-07-08T08:15:16.342Z,21088
2017-07-08T08:16:28.948Z,20896
2017-07-08T08:17:40.981Z,21184
2017-07-08T08:18:52.666Z,21600
2017-07-08T08:20:05.322Z,21888
2017-07-08T08:21:17.870Z,22432
2017-07-08T08:22:29.835Z,23136
2017-07-08T08:23:41.536Z,25024
2017-07-08T08:24:54.136Z,25184
2017-07-08T08:26:06.460Z,23808
2017-07-08T08:27:19.045Z,23168
2017-07-08T08:28:31.295Z,23584
2017-07-08T08:29:43.845Z,24576
2017-07-08T08:30:56.412Z,24864
2017-07-08T08:32:08.318Z,24608
2017-07-08T08:33:20.655Z,24064
2017-07-08T08:34:32.935Z,23552
2017-07-08T08:35:45.265Z,23552
2017-07-08T08:36:56.915Z,23584
2017-07-08T08:38:09.544Z,23648
2017-07-08T08:39:22.147Z,23968
2017-07-08T08:40:34.778Z,24096
2017-07-08T08:41:46.781Z,24256
2017-07-08T08:42:59.399Z,24800
2017-07-08T08:44:12.042Z,25888
2017-07-08T08:45:24.278Z,26080
2017-07-08T08:46:35.990Z,26112
2017-07-08T08:47:48.654Z,23872
2017-07-08T08:49:00.978Z,22560
2017-07-08T08:50:13.221Z,22304
2017-07-08T08:51:25.499Z,23296
2017-07-08T08:52:38.108Z,24544
2017-07-08T08:53:50.716Z,25408
2017-07-08T08:55:03.080Z,26464
2017-07-08T08:56:15.388Z,26496
2017-07-08T08:57:28.007Z,27488
2017-07-08T08:58:39.950Z,28128
2017-07-08T08:59:52.576Z,28224
2017-07-08T09:01:04.241Z,28736
2017-07-08T09:02:16.869Z,31392
2017-07-08T09:03:29.129Z,33248
2017-07-08T09:04:41.129Z,36160
2017-07-08T09:05:53.775Z,40320
2017-07-08T09:07:06.362Z,40256
2017-07-08T09:08:18.956Z,42208
2017-07-08T09:09:31.513Z,43488
2017-07-08T09:10:43.885Z,39008
2017-07-08T09:11:56.172Z,32960
2017-07-08T09:13:08.769Z,29408
2017-07-08T09:14:21.013Z,27552
2017-07-08T09:15:33.587Z,25920
2017-07-08T09:16:45.610Z,24928
2017-07-08T09:17:57.880Z,23968
2017-07-08T09:19:10.170Z,23456
2017-07-08T09:20:22.771Z,23328
2017-07-08T09:21:35.386Z,22272
2017-07-08T09:22:47.007Z,21664
2017-07-08T09:23:58.934Z,22080
2017-07-08T09:25:10.874Z,22016
2017-07-08T09:26:23.398Z,21792
2017-07-08T09:27:35.394Z,21856
2017-07-08T09:28:47.687Z,22880
2017-07-08T09:29:59.608Z,21984
2017-07-08T09:31:11.903Z,19296
2017-07-08T09:32:24.474Z,18528
2017-07-08T09:33:36.802Z,22944
2017-07-08T09:34:49.445Z,25760
2017-07-08T09:36:01.668Z,30176
2017-07-08T09:37:13.995Z,37120
2017-07-08T09:38:26.579Z,33824
2017-07-08T09:39:38.878Z,35712
2017-07-08T09:40:51.453Z,41824
2017-07-08T09:42:04.069Z,39232
2017-07-08T09:43:16.869Z,33888
2017-07-08T09:44:29.226Z,32896
2017-07-08T09:45:41.190Z,29792
2017-07-08T09:46:53.766Z,26912
2017-07-08T09:48:06.096Z,23872
2017-07-08T09:49:18.068Z,20544
2017-07-08T09:50:30.675Z,18688
2017-07-08T09:51:42.959Z,17728
2017-07-08T09:52:55.290Z,16980
2017-07-08T09:54:07.262Z,17172
2017-07-08T09:55:18.928Z,17504
2017-07-08T09:56:31.569Z,17260
2017-07-08T09:57:43.827Z,17252
2017-07-08T09:58:56.488Z,18016
2017-07-08T10:00:08.157Z,19072
2017-07-08T10:01:20.445Z,20320
2017-07-08T10:02:32.712Z,21248
2017-07-08T10:03:44.982Z,21248
2017-07-08T10:04:57.253Z,21632
2017-07-08T10:06:09.211Z,21728
2017-07-08T10:07:21.807Z,21984
2017-07-08T10:08:34.086Z,23008
2017-07-08T10:09:46.080Z,24256
2017-07-08T10:10:58.356Z,24928
2017-07-08T10:12:10.372Z,24576
2017-07-08T10:13:22.681Z,24704
2017-07-08T10:14:34.986Z,25376
2017-07-08T10:15:46.890Z,25792
2017-07-08T10:16:58.825Z,25984
2017-07-08T10:18:10.188Z,25344
2017-07-08T10:19:22.722Z,23520
2017-07-08T10:20:34.704Z,21696
2017-07-08T10:21:47.383Z,20416
2017-07-08T10:22:59.334Z,19904
2017-07-08T10:24:11.275Z,19296
2017-07-08T10:25:23.586Z,18560
2017-07-08T10:26:35.860Z,18016
2017-07-08T10:27:48.230Z,18272
2017-07-08T10:29:00.813Z,18784
2017-07-08T10:30:13.081Z,18560
2017-07-08T10:31:25.587Z,18368
2017-07-08T10:32:37.897Z,18208
2017-07-08T10:33:50.220Z,18336
2017-07-08T10:35:02.203Z,18496
2017-07-08T10:36:14.160Z,18560
2017-07-08T10:37:26.731Z,18944
2017-07-08T10:38:38.969Z,19392
2017-07-08T10:39:51.234Z,19776
2017-07-08T10:41:03.550Z,20736
2017-07-08T10:42:16.082Z,22560
2017-07-08T10:43:28.653Z,24832
2017-07-08T10:44:40.899Z,26752
2017-07-08T10:45:53.177Z,28256
2017-07-08T10:47:05.840Z,28736
2017-07-08T10:48:18.145Z,28832
2017-07-08T10:49:30.708Z,29184
2017-07-08T10:50:42.997Z,29984
2017-07-08T10:51:55.310Z,31392
2017-07-08T10:53:06.984Z,33088
2017-07-08T10:54:19.210Z,35200
2017-07-08T10:55:31.820Z,42528
2017-07-08T10:56:44.128Z,42304
2017-07-08T10:57:56.730Z,43456
2017-07-08T10:59:08.375Z,36640
2017-07-08T11:00:20.930Z,34016
2017-07-08T11:01:33.230Z,32128
2017-07-08T11:02:45.199Z,36224
2017-07-08T11:03:57.166Z,34240
2017-07-08T11:05:08.293Z,33440
2017-07-08T11:06:20.208Z,28480
2017-07-08T11:07:32.779Z,28288
2017-07-08T11:08:45.042Z,28832
2017-07-08T11:09:56.700Z,28960
2017-07-08T11:11:08.698Z,45280
2017-07-08T11:12:20.956Z,39488
2017-07-08T11:13:33.240Z,35488
2017-07-08T11:14:45.805Z,31168
2017-07-08T11:15:57.774Z,33760
2017-07-08T11:17:09.398Z,35808
2017-07-08T11:18:21.323Z,40128
2017-07-08T11:19:33.916Z,41088
2017-07-08T11:20:46.211Z,38560
2017-07-08T11:21:58.784Z,40128
2017-07-08T11:23:09.833Z,37664
2017-07-08T11:24:22.130Z,35424
2017-07-08T11:25:34.419Z,35104
2017-07-08T11:26:46.715Z,34880
2017-07-08T11:27:59.054Z,33952
2017-07-08T11:29:11.355Z,33632
2017-07-08T11:30:23.704Z,31776
2017-07-08T11:31:35.673Z,33344
2017-07-08T11:32:47.911Z,30976
2017-07-08T11:34:00.475Z,31296
2017-07-08T11:35:12.467Z,31744
2017-07-08T11:36:25.088Z,32992
2017-07-08T11:37:36.740Z,34624
2017-07-08T11:38:49.024Z,33408
2017-07-08T11:40:01.638Z,38336
2017-07-08T11:41:13.922Z,41120
2017-07-08T11:42:26.240Z,39712
2017-07-08T11:43:38.508Z,37088
2017-07-08T11:44:49.865Z,36192
2017-07-08T11:46:00.611Z,34400
2017-07-08T11:47:13.302Z,36224
2017-07-08T11:48:25.866Z,42592
2017-07-08T11:49:38.091Z,64224
2017-07-08T11:50:50.684Z,49504
2017-07-08T11:52:02.664Z,37472
2017-07-08T11:53:15.006Z,46080
2017-07-08T11:54:27.278Z,48320
2017-07-08T11:55:39.568Z,56000
2017-07-08T11:56:51.825Z,58112
2017-07-08T11:58:03.484Z,48192
2017-07-08T11:59:15.409Z,55328
2017-07-08T12:00:27.694Z,50528
2017-07-08T12:01:40.340Z,93760
2017-07-08T12:02:52.617Z,51328
2017-07-08T12:04:04.938Z,57920
2017-07-08T12:05:16.645Z,55232
2017-07-08T12:06:28.987Z,87648
2017-07-08T12:07:41.308Z,91360
2017-07-08T12:08:53.859Z,72992
2017-07-08T12:10:05.842Z,32736
2017-07-08T12:11:17.893Z,82944
2017-07-08T12:12:30.486Z,85312
2017-07-08T12:13:43.123Z,73536
2017-07-08T12:14:55.464Z,54304
2017-07-08T12:16:08.054Z,83840
2017-07-08T12:17:19.706Z,75872
2017-07-08T12:18:31.674Z,80704
2017-07-08T12:19:43.764Z,51648
2017-07-08T12:20:56.365Z,62912
2017-07-08T12:22:08.696Z,50336
2017-07-08T12:23:20.055Z,38368
2017-07-08T12:24:32.076Z,53568
2017-07-08T12:25:44.678Z,75264
2017-07-08T12:26:56.337Z,31680
2017-07-08T12:28:08.939Z,83392
2017-07-08T12:29:21.609Z,59392
2017-07-08T12:30:34.208Z,78496
2017-07-08T12:31:46.827Z,78464
2017-07-08T12:32:59.127Z,75808
2017-07-08T12:34:11.439Z,72800
2017-07-08T12:35:22.759Z,74528
2017-07-08T12:36:35.386Z,75296
2017-07-08T12:37:47.805Z,76928
2017-07-08T12:39:00.373Z,78016
2017-07-08T12:40:12.049Z,75552
2017-07-08T12:41:24.564Z,76064
2017-07-08T12:42:36.209Z,76800
2017-07-08T12:43:48.492Z,79680
2017-07-08T12:45:00.858Z,20608
2017-07-08T12:46:12.215Z,16176
2017-07-08T12:47:24.824Z,16120
2017-07-08T12:48:37.464Z,18048
2017-07-08T12:49:49.446Z,15400
2017-07-08T12:51:02.012Z,18240
2017-07-08T12:52:14.655Z,72736
2017-07-08T12:53:27.298Z,70720
2017-07-08T12:54:39.619Z,37632
2017-07-08T12:55:51.877Z,66144
2017-07-08T12:57:04.210Z,72128
2017-07-08T12:58:16.792Z,72640
2017-07-08T12:59:28.453Z,73760
2017-07-08T13:00:40.765Z,12452
2017-07-08T13:01:53.062Z,10260
2017-07-08T13:03:05.564Z,59072
2017-07-08T13:04:17.537Z,13184
2017-07-08T13:05:30.083Z,68032
2017-07-08T13:06:42.679Z,64000
2017-07-08T13:07:55.021Z,63776
2017-07-08T13:09:07.026Z,64448
2017-07-08T13:10:19.620Z,65856
2017-07-08T13:11:32.218Z,65568
2017-07-08T13:12:44.535Z,68192
2017-07-08T13:13:57.090Z,56736
2017-07-08T13:15:09.114Z,67200
2017-07-08T13:16:21.388Z,66400
2017-07-08T13:17:33.684Z,67808
2017-07-08T13:18:45.980Z,65056
2017-07-08T13:19:58.326Z,62944
2017-07-08T13:21:10.585Z,62080
2017-07-08T13:22:22.618Z,64096
2017-07-08T13:23:33.922Z,64928
2017-07-08T13:24:46.194Z,32928
2017-07-08T13:25:58.788Z,64608
2017-07-08T13:27:11.334Z,68384
2017-07-08T13:28:23.882Z,70912
2017-07-08T13:29:36.426Z,63264
2017-07-08T13:30:48.114Z,9792
2017-07-08T13:32:00.703Z,12196
2017-07-08T13:33:13.020Z,15976
2017-07-08T13:34:25.321Z,64192
2017-07-08T13:35:37.986Z,16740
2017-07-08T13:36:50.637Z,62304
2017-07-08T13:38:03.321Z,64256
2017-07-08T13:39:14.968Z,62688
2017-07-08T13:40:27.520Z,63200
2017-07-08T13:41:39.860Z,63616
2017-07-08T13:42:52.123Z,62720
2017-07-08T13:44:03.813Z,60768
2017-07-08T13:45:16.481Z,63648
2017-07-08T13:46:29.019Z,64928
2017-07-08T13:47:41.356Z,62432
2017-07-08T13:48:52.993Z,61952
2017-07-08T13:50:04.679Z,61152
2017-07-08T13:51:16.333Z,62144
2017-07-08T13:52:28.628Z,62208
2017-07-08T13:53:40.687Z,60992
2017-07-08T13:54:52.315Z,61120
2017-07-08T13:56:04.592Z,58912
2017-07-08T13:57:17.208Z,59008
2017-07-08T13:58:29.190Z,60384
2017-07-08T13:59:41.777Z,59328
2017-07-08T14:00:53.720Z,60000
2017-07-08T14:02:06.313Z,60224
2017-07-08T14:03:18.898Z,57600
2017-07-08T14:04:31.263Z,54496
2017-07-08T14:05:43.633Z,53536
2017-07-08T14:06:56.298Z,56352
2017-07-08T14:08:08.601Z,55264
2017-07-08T14:09:20.840Z,55840
2017-07-08T14:10:33.121Z,56320
2017-07-08T14:11:45.408Z,56416
2017-07-08T14:12:57.665Z,55936
2017-07-08T14:14:10.000Z,56160
2017-07-08T14:15:22.595Z,53888
2017-07-08T14:16:34.620Z,52416
2017-07-08T14:17:46.949Z,54816
2017-07-08T14:18:59.233Z,53824
2017-07-08T14:20:11.229Z,52768
2017-07-08T14:21:23.800Z,53280
2017-07-08T14:22:35.444Z,53760
2017-07-08T14:23:47.378Z,50816
2017-07-08T14:25:00.236Z,51680
2017-07-08T14:26:11.933Z,22080
2017-07-08T14:27:24.546Z,50272
2017-07-08T14:28:36.775Z,48608
2017-07-08T14:29:49.371Z,46592
2017-07-08T14:31:01.320Z,42656
2017-07-08T14:32:12.691Z,25984
2017-07-08T14:33:25.333Z,31200
2017-07-08T14:34:37.631Z,40160
2017-07-08T14:35:49.917Z,9972
2017-07-08T14:37:01.583Z,10812
2017-07-08T14:38:14.204Z,26176
2017-07-08T14:39:26.188Z,13776
2017-07-08T14:40:38.534Z,32416
2017-07-08T14:41:50.495Z,40032
2017-07-08T14:43:02.518Z,37760
2017-07-08T14:44:15.108Z,38368
2017-07-08T14:45:27.343Z,40480
2017-07-08T14:46:39.913Z,36672
2017-07-08T14:47:52.166Z,17888
2017-07-08T14:49:04.504Z,14952
2017-07-08T14:50:17.111Z,13576
2017-07-08T14:51:28.811Z,13060
2017-07-08T14:52:41.080Z,10064
2017-07-08T14:53:52.784Z,8508
2017-07-08T14:55:05.417Z,9236
2017-07-08T14:56:18.018Z,7148
2017-07-08T14:57:30.277Z,6692
2017-07-08T14:58:42.838Z,6372
2017-07-08T14:59:55.444Z,6116
2017-07-08T15:01:07.739Z,5984
2017-07-08T15:02:20.302Z,5960
2017-07-08T15:03:32.539Z,6012
2017-07-08T15:04:44.839Z,7052
2017-07-08T15:05:57.102Z,5464
2017-07-08T15:07:09.087Z,5528
2017-07-08T15:08:21.651Z,5732
2017-07-08T15:09:34.391Z,7216
2017-07-08T15:10:46.332Z,6580
2017-07-08T15:11:58.902Z,7940
2017-07-08T15:13:11.191Z,7524
2017-07-08T15:14:23.487Z,6800
2017-07-08T15:15:35.771Z,5988
2017-07-08T15:16:47.404Z,4968
2017-07-08T15:17:59.663Z,6052
2017-07-08T15:19:11.928Z,7720
2017-07-08T15:20:23.550Z,8632
2017-07-08T15:21:35.806Z,9144
2017-07-08T15:22:47.791Z,8460
2017-07-08T15:23:59.698Z,7512
2017-07-08T15:25:11.983Z,7236
2017-07-08T15:26:24.308Z,6944
2017-07-08T15:27:36.575Z,6464
2017-07-08T15:28:49.189Z,6896
2017-07-08T15:30:01.472Z,7052
2017-07-08T15:31:13.449Z,8128
2017-07-08T15:32:25.758Z,9892
2017-07-08T15:33:38.018Z,10972
2017-07-08T15:34:50.295Z,9988
2017-07-08T15:36:02.845Z,9908
2017-07-08T15:37:14.477Z,9348
2017-07-08T15:38:26.487Z,8252
2017-07-08T15:39:38.734Z,7284
2017-07-08T15:40:51.329Z,5852
2017-07-08T15:42:03.692Z,6636
2017-07-08T15:43:15.621Z,8336
2017-07-08T15:44:28.226Z,12300
2017-07-08T15:45:40.730Z,11796
2017-07-08T15:46:53.340Z,9216
2017-07-08T15:48:05.622Z,7396
2017-07-08T15:49:18.201Z,7704
2017-07-08T15:50:30.489Z,7568
2017-07-08T15:51:42.728Z,9208
2017-07-08T15:52:55.364Z,8264
2017-07-08T15:54:07.010Z,7348
2017-07-08T15:55:19.537Z,5956
2017-07-08T15:56:31.850Z,5164
2017-07-08T15:57:44.447Z,6060
2017-07-08T15:58:56.705Z,6392
2017-07-08T16:00:08.615Z,6648